joomla templates top joomla templates template joomla

King Air Abend

Notam

C3641/14 - CUSTOMS AVBL PPR, TEL 0049 9561 92098. 13 NOV 14:46 2014 UNTIL PERM. CREATED: 13 NOV 14:47 2014

Neue Wetteranzeige

Aktuelles Platzwetter Stand 27.02.2017 18:03Z

AvgMinMax
Windrichtung180160200Deg
Windgeschwindigkeit9614kt
Sichtweite>10000m
Temperatur10°C
Taupunkt3°C
Feuchte60%
QNH999.8hPa
QFE947.0hPa
WolkenFEW060

Aerodrome Terminal Information Service (ATIS) Coburg

METAR
EDQC 271750Z AUTO 18008KT CAVOK 10/03 Q1000=

METAR und TAF der Umgebung

[Quelle: ADDS]
METAR
EDDF 271750Z 17014KT CAVOK 14/03 Q0996 TEMPO 20015G30KT SHRA =
EDDN 271750Z 12004KT CAVOK 11/01 Q1001 NOSIG =
EDDE 271750Z 21013KT 9999 FEW046 SCT300 11/03 Q0997 TEMPO 21015G25KT =
TAF
EDDF 271700Z 2718/2824 20015G25KT 9999 BKN040 TEMPO 2719/2802 22020G35KT SHRA BKN025CB TEMPO 2803/2811 20012KT SCT040 TEMPO 2812/2815 RA BKN020TCU TEMPO 2815/2818 22020G35KT SHRA BKN020CB PROB30 TEMPO 2823/2824 SHRA BKN030CB =
EDDN 271700Z 2718/2818 16010KT 9999 BKN040 BECMG 2801/2803 25010KT RA BECMG 2805/2807 NSW BECMG 2812/2814 16010KT TEMPO 2816/2818 RA =
EDDE 271700Z 2718/2818 21012KT CAVOK BECMG 2720/2723 21015G30KT PROB30 TEMPO 2800/2804 24025G40KT SHRA SCT015CB TEMPO 2809/2814 21020G35KT =
SR / SS: 06:03 / 16:56 UTC (EDQC 2017-02-27)

Wetterverlauf

Windvorhersage

Verkehrslandeplatz Coburg Brandensteinsebene
Tower
Zur Brandensteinsebene
96450 Coburg

AeroClub Logo 200px

Aero Club Coburg e. V.
Postfach 11 09
96401 Coburg